Time;durP1;ratioP1;P1;durP2;ratioP2;P2;SDS_P1;SDS_P2;PMS_P1;PMS_P2;Temp;Humidity;BMP_temperature;BMP_pressure;BME280_temperature;BME280_humidity;BME280_pressure;Samples;Min_cycle;Max_cycle;Signal;HPM_P1;HPM_P2
2023/10/02 00:01:52;;;;;;;10.70;7.10;;;;;;;;;;5023089;28;20199;-82
2023/10/02 00:04:23;;;;;;;13.70;7.20;;;;;;;;;;5025903;28;20195;-83
2023/10/02 00:07:05;;;;;;;10.87;6.70;;;;;;;;;;5029876;28;20198;-81
2023/10/02 00:09:34;;;;;;;15.20;7.63;;;;;;;;;;5016964;28;20206;-84
2023/10/02 00:12:26;;;;;;;11.77;6.97;;;;;;;;;;5018099;28;20203;-82
2023/10/02 00:14:53;;;;;;;11.03;6.90;;;;;;;;;;5041087;28;20237;-81
2023/10/02 00:17:22;;;;;;;11.63;6.53;;;;;;;;;;5034006;28;20226;-81
2023/10/02 00:19:57;;;;;;;12.83;6.73;;;;;;;;;;5033446;28;20214;-82
2023/10/02 00:22:43;;;;;;;11.67;6.87;;;;;;;;;;5020903;28;20202;-79
2023/10/02 00:25:19;;;;;;;10.80;6.33;;;;;;;;;;5027503;28;20230;-79
2023/10/02 00:27:51;;;;;;;10.57;6.73;;;;;;;;;;5033415;28;20367;-79
2023/10/02 00:30:20;;;;;;;12.30;6.63;;;;;;;;;;5014134;28;20309;-81
2023/10/02 00:32:49;;;;;;;11.47;6.90;;;;;;;;;;5024274;28;20211;-82
2023/10/02 00:35:16;;;;;;;12.27;6.63;;;;;;;;;;5027117;28;20244;-81
2023/10/02 00:37:44;;;;;;;11.07;6.67;;;;;;;;;;5043395;28;20223;-82
2023/10/02 00:40:20;;;;;;;13.00;6.70;;;;;;;;;;5044605;28;20198;-79
2023/10/02 00:42:55;;;;;;;11.23;7.03;;;;;;;;;;5054259;28;20207;-80
2023/10/02 00:45:24;;;;;;;13.00;7.00;;;;;;;;;;5028853;28;20214;-80
2023/10/02 00:47:53;;;;;;;9.30;5.87;;;;;;;;;;5029962;28;20217;-79
2023/10/02 00:50:22;;;;;;;10.47;6.33;;;;;;;;;;5038662;28;20234;-81
2023/10/02 00:52:55;;;;;;;11.83;6.63;;;;;;;;;;5042191;28;20673;-80
2023/10/02 00:55:24;;;;;;;11.50;7.10;;;;;;;;;;5020625;28;20338;-80
2023/10/02 00:57:52;;;;;;;13.27;7.10;;;;;;;;;;5026572;28;20223;-81
2023/10/02 01:00:21;;;;;;;10.93;6.53;;;;;;;;;;5022146;28;20766;-79
2023/10/02 01:02:50;;;;;;;12.27;6.70;;;;;;;;;;5029712;28;20291;-80
2023/10/02 01:05:21;;;;;;;11.57;6.80;;;;;;;;;;5028949;28;20226;-82
2023/10/02 01:07:53;;;;;;;14.03;7.30;;;;;;;;;;5041387;28;20669;-79
2023/10/02 01:10:23;;;;;;;12.00;7.00;;;;;;;;;;5035758;28;20202;-81
2023/10/02 01:12:53;;;;;;;12.87;7.13;;;;;;;;;;5024857;28;20661;-83
2023/10/02 01:15:26;;;;;;;10.57;6.63;;;;;;;;;;5037640;28;20689;-82
2023/10/02 01:18:21;;;;;;;11.43;6.73;;;;;;;;;;5015859;28;20233;-83
2023/10/02 01:20:53;;;;;;;12.77;7.07;;;;;;;;;;5020237;28;20206;-81
2023/10/02 01:23:25;;;;;;;10.97;6.27;;;;;;;;;;5036246;28;20219;-82
2023/10/02 01:26:01;;;;;;;9.83;6.93;;;;;;;;;;5057921;28;20214;-80
2023/10/02 01:28:51;;;;;;;12.37;7.13;;;;;;;;;;5040950;28;20229;-81
2023/10/02 01:31:42;;;;;;;11.63;6.67;;;;;;;;;;5045782;28;20203;-82
2023/10/02 01:34:10;;;;;;;13.17;7.00;;;;;;;;;;5049081;28;20241;-80
2023/10/02 01:36:41;;;;;;;11.43;6.60;;;;;;;;;;5040424;28;20233;-82
2023/10/02 01:39:13;;;;;;;13.03;7.07;;;;;;;;;;5041619;28;20226;-82
2023/10/02 01:41:41;;;;;;;11.07;6.33;;;;;;;;;;5046922;28;20238;-83
2023/10/02 01:44:12;;;;;;;11.50;7.07;;;;;;;;;;5041832;28;20198;-85
2023/10/02 01:46:49;;;;;;;13.40;6.97;;;;;;;;;;5021179;28;20232;-82
2023/10/02 01:49:24;;;;;;;11.67;7.23;;;;;;;;;;5038169;28;20210;-83
2023/10/02 01:52:02;;;;;;;11.07;6.93;;;;;;;;;;5045883;28;20198;-83
2023/10/02 01:54:29;;;;;;;12.17;6.77;;;;;;;;;;5039073;28;20203;-84
2023/10/02 01:56:57;;;;;;;13.40;7.30;;;;;;;;;;5042270;28;20250;-83
2023/10/02 01:59:24;;;;;;;15.30;7.70;;;;;;;;;;5048643;28;20261;-80
2023/10/02 02:01:54;;;;;;;18.17;9.33;;;;;;;;;;5038948;28;20199;-83
2023/10/02 02:04:22;;;;;;;18.47;9.60;;;;;;;;;;5033212;28;20780;-84
2023/10/02 02:06:51;;;;;;;22.27;11.77;;;;;;;;;;5051262;28;20578;-84
2023/10/02 02:09:23;;;;;;;23.63;12.63;;;;;;;;;;5042110;28;20202;-81
2023/10/02 02:12:05;;;;;;;13.77;8.30;;;;;;;;;;5032169;28;20209;-81
2023/10/02 02:14:33;;;;;;;18.13;10.30;;;;;;;;;;5036778;28;20203;-84
2023/10/02 02:17:01;;;;;;;22.57;11.90;;;;;;;;;;5020059;28;20231;-83
2023/10/02 02:19:29;;;;;;;19.17;10.90;;;;;;;;;;5033182;28;20211;-84
2023/10/02 02:21:56;;;;;;;17.53;10.13;;;;;;;;;;5019525;28;20457;-84
2023/10/02 02:24:24;;;;;;;16.37;9.93;;;;;;;;;;5026722;28;20232;-83
2023/10/02 02:26:59;;;;;;;15.87;9.13;;;;;;;;;;5019963;28;20202;-82
2023/10/02 02:29:26;;;;;;;14.43;8.77;;;;;;;;;;5033695;28;20207;-81
2023/10/02 02:31:54;;;;;;;13.60;8.73;;;;;;;;;;5022676;28;20629;-82
2023/10/02 02:34:23;;;;;;;11.83;7.53;;;;;;;;;;5004400;28;20204;-84
2023/10/02 02:36:51;;;;;;;12.13;7.33;;;;;;;;;;5031343;28;20214;-82
2023/10/02 02:39:22;;;;;;;13.30;7.63;;;;;;;;;;5031818;28;20195;-83
2023/10/02 02:42:08;;;;;;;13.73;7.57;;;;;;;;;;5007159;28;20272;-82
2023/10/02 02:44:39;;;;;;;12.60;6.63;;;;;;;;;;5029948;28;20258;-81
2023/10/02 02:47:09;;;;;;;12.47;6.97;;;;;;;;;;5017724;28;20253;-80
2023/10/02 02:49:51;;;;;;;14.57;7.33;;;;;;;;;;5031812;28;20210;-83
2023/10/02 02:52:19;;;;;;;11.23;6.27;;;;;;;;;;5010777;28;20211;-82
2023/10/02 02:54:47;;;;;;;11.57;6.80;;;;;;;;;;5030813;28;20226;-80
2023/10/02 02:57:18;;;;;;;11.10;6.67;;;;;;;;;;5038952;28;20219;-83
2023/10/02 02:59:46;;;;;;;11.27;7.03;;;;;;;;;;5011006;28;20706;-84
2023/10/02 03:02:21;;;;;;;15.03;7.50;;;;;;;;;;5035494;28;20792;-83
2023/10/02 03:04:56;;;;;;;14.07;7.17;;;;;;;;;;5017217;28;20245;-84
2023/10/02 03:07:29;;;;;;;11.53;7.23;;;;;;;;;;5034922;28;20198;-84
2023/10/02 03:09:58;;;;;;;13.00;7.23;;;;;;;;;;5033086;28;20697;-83
2023/10/02 03:12:27;;;;;;;11.93;6.97;;;;;;;;;;5013067;28;20206;-81
2023/10/02 03:14:55;;;;;;;13.40;7.27;;;;;;;;;;5019175;28;20226;-83
2023/10/02 03:17:30;;;;;;;11.73;7.17;;;;;;;;;;5008211;28;20591;-80
2023/10/02 03:20:00;;;;;;;11.33;6.80;;;;;;;;;;5031416;28;20201;-81
2023/10/02 03:22:28;;;;;;;10.50;6.80;;;;;;;;;;5019696;28;20219;-82
2023/10/02 03:25:24;;;;;;;11.27;6.90;;;;;;;;;;5019295;28;20219;-84
2023/10/02 03:27:48;;;;;;;12.23;6.77;;;;;;;;;;5030269;28;20206;-82
2023/10/02 03:30:35;;;;;;;14.90;7.00;;;;;;;;;;5027302;28;20236;-81
2023/10/02 03:33:17;;;;;;;14.00;7.63;;;;;;;;;;5030715;28;20203;-85
2023/10/02 03:35:56;;;;;;;11.70;6.93;;;;;;;;;;5026390;28;20230;-83
2023/10/02 03:38:33;;;;;;;14.20;7.30;;;;;;;;;;5027762;28;20231;-84
2023/10/02 03:41:01;;;;;;;13.07;7.20;;;;;;;;;;5022768;28;20644;-83
2023/10/02 03:43:35;;;;;;;13.00;6.83;;;;;;;;;;5020636;28;20211;-81
2023/10/02 03:46:06;;;;;;;13.27;6.97;;;;;;;;;;5024633;28;20227;-83
2023/10/02 03:48:34;;;;;;;15.13;7.60;;;;;;;;;;5028067;28;20203;-82
2023/10/02 03:51:04;;;;;;;14.83;7.70;;;;;;;;;;5019613;28;20578;-82
2023/10/02 03:53:33;;;;;;;14.17;7.70;;;;;;;;;;5017528;28;20203;-81
2023/10/02 03:58:51;;;;;;;12.20;7.73;;;;;;;;;;5028258;28;20230;-83
2023/10/02 04:01:31;;;;;;;15.13;8.50;;;;;;;;;;5024274;28;20280;-84
2023/10/02 04:04:19;;;;;;;15.80;8.00;;;;;;;;;;5005844;28;20254;-84
2023/10/02 04:06:47;;;;;;;17.93;8.27;;;;;;;;;;5021991;28;20793;-84
2023/10/02 04:11:45;;;;;;;12.27;7.20;;;;;;;;;;5011123;28;20282;-82
2023/10/02 04:14:19;;;;;;;12.63;7.73;;;;;;;;;;5010058;28;20209;-81
2023/10/02 04:16:51;;;;;;;12.67;7.70;;;;;;;;;;4997992;28;20512;-84
2023/10/02 04:19:23;;;;;;;13.83;8.70;;;;;;;;;;5007303;28;20285;-82
2023/10/02 04:21:56;;;;;;;14.63;8.20;;;;;;;;;;5027010;28;20218;-83
2023/10/02 04:24:24;;;;;;;14.30;7.63;;;;;;;;;;5023772;28;20667;-83
2023/10/02 04:27:05;;;;;;;13.33;7.30;;;;;;;;;;5018053;28;20273;-78
2023/10/02 04:29:37;;;;;;;13.73;7.43;;;;;;;;;;5022833;28;20681;-78
2023/10/02 04:32:14;;;;;;;16.93;8.10;;;;;;;;;;5020217;28;20294;-82
2023/10/02 04:34:50;;;;;;;15.73;7.60;;;;;;;;;;5021204;28;20226;-80
2023/10/02 04:37:22;;;;;;;12.10;7.40;;;;;;;;;;5022524;28;20214;-79
2023/10/02 04:45:20;;;;;;;17.47;7.63;;;;;;;;;;5030225;28;20681;-85
2023/10/02 04:47:48;;;;;;;13.67;7.70;;;;;;;;;;5034437;28;20309;-83
2023/10/02 04:52:56;;;;;;;14.60;7.83;;;;;;;;;;5037747;28;20207;-80
2023/10/02 04:55:41;;;;;;;14.10;7.80;;;;;;;;;;5016911;28;20258;-81
2023/10/02 04:58:14;;;;;;;16.17;8.10;;;;;;;;;;5012915;28;20219;-87
2023/10/02 05:03:36;;;;;;;13.43;7.87;;;;;;;;;;5037978;28;20210;-82
2023/10/02 05:06:05;;;;;;;14.70;8.83;;;;;;;;;;5033422;28;20227;-82
2023/10/02 05:08:35;;;;;;;16.10;9.37;;;;;;;;;;5015548;28;20278;-80
2023/10/02 05:11:07;;;;;;;12.83;8.33;;;;;;;;;;5014589;28;20206;-84
2023/10/02 05:16:33;;;;;;;15.90;8.30;;;;;;;;;;5033790;28;20234;-84
2023/10/02 05:19:04;;;;;;;16.50;8.47;;;;;;;;;;5026337;28;20788;-84
2023/10/02 05:21:49;;;;;;;14.73;9.07;;;;;;;;;;5022567;28;20202;-82
2023/10/02 05:24:18;;;;;;;16.40;9.37;;;;;;;;;;5027252;28;20206;-84
2023/10/02 05:26:46;;;;;;;14.90;9.17;;;;;;;;;;5026476;28;20215;-81
2023/10/02 05:29:18;;;;;;;16.67;8.47;;;;;;;;;;5029005;28;20210;-78
2023/10/02 05:31:47;;;;;;;15.73;8.50;;;;;;;;;;5029713;28;20202;-82
2023/10/02 05:34:22;;;;;;;15.67;8.87;;;;;;;;;;5025051;28;20207;-83
2023/10/02 05:39:39;;;;;;;15.13;8.57;;;;;;;;;;5013107;28;20223;-85
2023/10/02 05:42:13;;;;;;;14.87;8.33;;;;;;;;;;5029588;28;20296;-82
2023/10/02 05:44:42;;;;;;;16.37;9.60;;;;;;;;;;5028035;28;20221;-86
2023/10/02 05:47:11;;;;;;;15.73;9.43;;;;;;;;;;5032263;28;20196;-83
2023/10/02 05:49:43;;;;;;;14.60;8.30;;;;;;;;;;5031970;28;20238;-82
2023/10/02 05:52:14;;;;;;;16.37;8.57;;;;;;;;;;5022841;28;20204;-85
2023/10/02 05:54:53;;;;;;;13.30;8.47;;;;;;;;;;5015628;28;20233;-81
2023/10/02 05:57:21;;;;;;;11.17;7.43;;;;;;;;;;5034415;28;20669;-83
2023/10/02 05:59:48;;;;;;;12.57;6.83;;;;;;;;;;5035645;28;20226;-83
2023/10/02 06:02:20;;;;;;;13.03;7.97;;;;;;;;;;5020364;28;20761;-83
2023/10/02 06:04:48;;;;;;;11.70;7.10;;;;;;;;;;5031994;28;20253;-82
2023/10/02 06:10:08;;;;;;;13.90;8.07;;;;;;;;;;5033633;28;20208;-80
2023/10/02 06:12:42;;;;;;;14.57;7.47;;;;;;;;;;5028445;28;20203;-80
2023/10/02 06:15:43;;;;;;;13.07;6.93;;;;;;;;;;5033329;28;20644;-85
2023/10/02 06:18:01;;;;;;;13.47;7.13;;;;;;;;;;5027209;28;20245;-86
2023/10/02 06:20:29;;;;;;;12.33;7.10;;;;;;;;;;5023436;28;20199;-83
2023/10/02 06:23:05;;;;;;;11.03;7.23;;;;;;;;;;5032409;28;20250;-85
2023/10/02 06:25:33;;;;;;;14.30;7.13;;;;;;;;;;5031952;28;20242;-82
2023/10/02 06:28:22;;;;;;;14.13;7.70;;;;;;;;;;5015070;28;20207;-83
2023/10/02 06:30:49;;;;;;;13.43;8.13;;;;;;;;;;5031222;28;20226;-85
2023/10/02 06:33:21;;;;;;;14.87;8.30;;;;;;;;;;5035125;28;20298;-86
2023/10/02 06:36:00;;;;;;;16.37;8.30;;;;;;;;;;5020494;28;20230;-86
2023/10/02 06:38:30;;;;;;;16.30;8.17;;;;;;;;;;5024198;28;20230;-83
2023/10/02 06:40:59;;;;;;;16.33;8.03;;;;;;;;;;5033410;28;20206;-86
2023/10/02 06:43:32;;;;;;;14.57;8.30;;;;;;;;;;5031298;28;20195;-82
2023/10/02 06:46:06;;;;;;;20.30;8.80;;;;;;;;;;5028134;28;20347;-83
2023/10/02 06:48:34;;;;;;;24.73;9.63;;;;;;;;;;5027736;28;20207;-81
2023/10/02 06:51:04;;;;;;;19.07;9.30;;;;;;;;;;5028932;28;20205;-82
2023/10/02 06:53:31;;;;;;;15.90;8.63;;;;;;;;;;5025807;28;20203;-81
2023/10/02 06:55:58;;;;;;;18.47;8.80;;;;;;;;;;5034424;28;20232;-82
2023/10/02 06:58:26;;;;;;;17.97;9.93;;;;;;;;;;5028533;28;20229;-85
2023/10/02 07:01:01;;;;;;;21.93;9.60;;;;;;;;;;5014634;28;20290;-82
2023/10/02 07:03:28;;;;;;;16.47;9.07;;;;;;;;;;5026648;28;20201;-84
2023/10/02 07:05:57;;;;;;;20.03;9.93;;;;;;;;;;5020611;28;20243;-81
2023/10/02 07:08:30;;;;;;;17.37;9.80;;;;;;;;;;5025549;28;20211;-84
2023/10/02 07:10:58;;;;;;;17.47;9.97;;;;;;;;;;5025832;28;20568;-84
2023/10/02 07:13:25;;;;;;;17.53;9.23;;;;;;;;;;5027384;28;20218;-83
2023/10/02 07:15:55;;;;;;;21.47;11.00;;;;;;;;;;5031230;28;20317;-82
2023/10/02 07:18:37;;;;;;;19.43;10.77;;;;;;;;;;5032326;28;20223;-88
2023/10/02 07:21:08;;;;;;;23.10;10.63;;;;;;;;;;5029422;28;20207;-84
2023/10/02 07:23:39;;;;;;;18.40;10.10;;;;;;;;;;5028364;28;20697;-83
2023/10/02 07:26:13;;;;;;;21.33;11.00;;;;;;;;;;5005758;28;20287;-83
2023/10/02 07:28:50;;;;;;;21.42;10.70;;;;;;;;;;5012673;28;20285;-84
2023/10/02 07:31:22;;;;;;;21.17;10.67;;;;;;;;;;5033791;28;20811;-84
2023/10/02 07:33:55;;;;;;;20.77;10.77;;;;;;;;;;5011326;28;20212;-81
2023/10/02 07:36:26;;;;;;;22.10;11.18;;;;;;;;;;5009953;28;20474;-81
2023/10/02 07:38:54;;;;;;;20.88;11.00;;;;;;;;;;5028800;28;20568;-82
2023/10/02 07:41:25;;;;;;;23.85;12.77;;;;;;;;;;5033487;28;20649;-81
2023/10/02 07:43:54;;;;;;;22.60;12.85;;;;;;;;;;5023889;28;20673;-80
2023/10/02 07:46:22;;;;;;;25.73;13.10;;;;;;;;;;5024219;28;20243;-83
2023/10/02 07:48:57;;;;;;;26.10;12.57;;;;;;;;;;5024344;28;20203;-81
2023/10/02 07:51:37;;;;;;;26.23;13.63;;;;;;;;;;5010730;28;20202;-85
2023/10/02 07:54:08;;;;;;;25.45;13.93;;;;;;;;;;5029925;28;20210;-82
2023/10/02 07:56:35;;;;;;;30.75;13.98;;;;;;;;;;5027754;28;20713;-78
2023/10/02 07:59:03;;;;;;;26.25;13.48;;;;;;;;;;5027421;28;20223;-81
2023/10/02 08:01:34;;;;;;;32.72;14.90;;;;;;;;;;5029645;28;20930;-81
2023/10/02 08:04:02;;;;;;;24.13;12.60;;;;;;;;;;5024688;28;20245;-82
2023/10/02 08:06:33;;;;;;;26.75;13.90;;;;;;;;;;5007919;28;20278;-80
2023/10/02 08:11:53;;;;;;;27.40;14.10;;;;;;;;;;5017068;28;20294;-81
2023/10/02 08:17:35;;;;;;;28.85;14.55;;;;;;;;;;5022756;28;20211;-80
2023/10/02 08:20:31;;;;;;;24.35;13.48;;;;;;;;;;4999905;28;20771;-80
2023/10/02 08:23:02;;;;;;;26.58;13.27;;;;;;;;;;5020817;28;20207;-82
2023/10/02 08:25:33;;;;;;;24.88;12.43;;;;;;;;;;5022229;28;20588;-83
2023/10/02 08:28:00;;;;;;;27.13;13.63;;;;;;;;;;5031214;28;20203;-80
2023/10/02 08:30:31;;;;;;;24.10;12.73;;;;;;;;;;5033857;28;20214;-85
2023/10/02 08:33:08;;;;;;;22.83;13.02;;;;;;;;;;5022529;28;20582;-82
2023/10/02 08:35:55;;;;;;;22.75;12.90;;;;;;;;;;5019314;28;20294;-84
2023/10/02 08:38:23;;;;;;;23.58;13.30;;;;;;;;;;5022125;28;20617;-81
2023/10/02 08:40:57;;;;;;;22.58;12.93;;;;;;;;;;5025357;28;20211;-84
2023/10/02 08:43:25;;;;;;;26.73;13.43;;;;;;;;;;5019427;28;20587;-82
2023/10/02 08:45:53;;;;;;;24.35;13.77;;;;;;;;;;5000914;28;20423;-84
2023/10/02 08:48:22;;;;;;;29.85;15.88;;;;;;;;;;5015347;28;20306;-79
2023/10/02 08:50:49;;;;;;;26.48;15.05;;;;;;;;;;5014157;28;20218;-82
2023/10/02 08:53:20;;;;;;;25.42;14.68;;;;;;;;;;4999926;28;20232;-82
2023/10/02 08:58:22;;;;;;;31.85;16.13;;;;;;;;;;5027473;28;20269;-84
2023/10/02 09:01:17;;;;;;;31.63;16.00;;;;;;;;;;5026414;28;20257;-79
2023/10/02 09:03:47;;;;;;;31.58;16.10;;;;;;;;;;5024674;28;20211;-84
2023/10/02 09:06:35;;;;;;;28.90;15.40;;;;;;;;;;5021900;28;20258;-84
2023/10/02 09:09:15;;;;;;;29.83;15.45;;;;;;;;;;5017988;28;20203;-84
2023/10/02 09:11:51;;;;;;;34.80;17.77;;;;;;;;;;5007906;28;20669;-82
2023/10/02 09:16:47;;;;;;;35.13;17.83;;;;;;;;;;5032752;28;20600;-84
2023/10/02 09:19:31;;;;;;;29.75;16.30;;;;;;;;;;5039310;28;20264;-85
2023/10/02 09:22:10;;;;;;;30.33;16.20;;;;;;;;;;5019499;28;20896;-82
2023/10/02 09:24:40;;;;;;;31.80;16.20;;;;;;;;;;5033853;28;20226;-82
2023/10/02 09:27:23;;;;;;;28.80;15.02;;;;;;;;;;5002047;28;20255;-83
2023/10/02 09:30:15;;;;;;;28.45;15.07;;;;;;;;;;5018735;28;20686;-81
2023/10/02 09:32:47;;;;;;;28.75;15.13;;;;;;;;;;5023115;28;20210;-78
2023/10/02 09:35:23;;;;;;;31.10;16.90;;;;;;;;;;5031855;28;20604;-82
2023/10/02 09:38:13;;;;;;;29.10;16.08;;;;;;;;;;5045132;28;20214;-81
2023/10/02 09:40:54;;;;;;;30.80;15.60;;;;;;;;;;5022974;28;20229;-80
2023/10/02 09:43:23;;;;;;;28.52;15.80;;;;;;;;;;5015075;28;20207;-83
2023/10/02 09:45:55;;;;;;;29.58;15.35;;;;;;;;;;5024046;28;20227;-83
2023/10/02 09:48:52;;;;;;;28.33;15.35;;;;;;;;;;5027884;28;20270;-80
2023/10/02 09:51:26;;;;;;;29.77;15.55;;;;;;;;;;5037434;28;20203;-79
2023/10/02 09:54:04;;;;;;;29.20;15.30;;;;;;;;;;5033127;28;20724;-81
2023/10/02 09:57:04;;;;;;;33.45;16.17;;;;;;;;;;5050185;28;20754;-82
2023/10/02 09:59:48;;;;;;;29.30;15.70;;;;;;;;;;5028871;28;20230;-81
2023/10/02 10:07:46;;;;;;;32.03;16.35;;;;;;;;;;5023186;28;20238;-83
2023/10/02 10:10:45;;;;;;;30.83;15.82;;;;;;;;;;5023265;28;20203;-82
2023/10/02 10:13:32;;;;;;;30.88;16.00;;;;;;;;;;5028549;28;20204;-85
2023/10/02 10:16:29;;;;;;;32.20;16.77;;;;;;;;;;5016179;28;20235;-83
2023/10/02 10:24:35;;;;;;;35.47;17.92;;;;;;;;;;5021496;28;20208;-84
2023/10/02 10:27:02;;;;;;;35.47;18.60;;;;;;;;;;4995940;28;20210;-84
2023/10/02 10:29:42;;;;;;;37.22;20.50;;;;;;;;;;5027248;28;20215;-83
2023/10/02 10:32:17;;;;;;;34.15;18.67;;;;;;;;;;5028060;28;20619;-83
2023/10/02 10:35:14;;;;;;;35.33;17.90;;;;;;;;;;5031098;28;20225;-82
2023/10/02 10:37:46;;;;;;;32.60;17.73;;;;;;;;;;5029977;28;20218;-81
2023/10/02 10:40:50;;;;;;;37.53;20.17;;;;;;;;;;5029512;28;20337;-85
2023/10/02 10:43:21;;;;;;;38.92;19.85;;;;;;;;;;5019451;28;20198;-83
2023/10/02 10:45:49;;;;;;;36.83;20.27;;;;;;;;;;5031296;28;20227;-87
2023/10/02 10:48:22;;;;;;;40.17;21.90;;;;;;;;;;5041317;28;20206;-85
2023/10/02 10:51:00;;;;;;;37.90;21.02;;;;;;;;;;5045834;28;20708;-86
2023/10/02 10:53:41;;;;;;;39.22;21.90;;;;;;;;;;5053083;28;20206;-86
2023/10/02 10:56:18;;;;;;;44.40;23.35;;;;;;;;;;5032448;28;20279;-89
2023/10/02 10:58:47;;;;;;;40.60;23.63;;;;;;;;;;5001717;28;20209;-86
2023/10/02 11:01:20;;;;;;;45.25;25.08;;;;;;;;;;5033308;28;20223;-88
2023/10/02 11:03:54;;;;;;;45.15;25.13;;;;;;;;;;5024980;28;20208;-83
2023/10/02 11:06:22;;;;;;;46.17;25.33;;;;;;;;;;5024097;28;20219;-84
2023/10/02 11:09:11;;;;;;;48.42;26.83;;;;;;;;;;5024516;28;20198;-87
2023/10/02 11:11:50;;;;;;;56.83;30.58;;;;;;;;;;5020048;28;20734;-78
2023/10/02 11:14:23;;;;;;;59.15;32.33;;;;;;;;;;5021162;28;20278;-80
2023/10/02 11:16:52;;;;;;;74.78;39.53;;;;;;;;;;5023589;28;20211;-81
2023/10/02 11:22:14;;;;;;;51.55;28.23;;;;;;;;;;5021599;28;20704;-82
2023/10/02 11:24:43;;;;;;;48.60;27.13;;;;;;;;;;5031777;28;20222;-84
2023/10/02 11:27:15;;;;;;;52.53;29.05;;;;;;;;;;5022782;28;20206;-81
2023/10/02 11:29:45;;;;;;;56.60;31.88;;;;;;;;;;5034322;28;20873;-84
2023/10/02 11:32:19;;;;;;;55.08;31.10;;;;;;;;;;5035293;28;20221;-85
2023/10/02 11:34:51;;;;;;;52.20;30.60;;;;;;;;;;5014679;28;20277;-84
2023/10/02 11:37:19;;;;;;;46.45;26.67;;;;;;;;;;5020171;28;20202;-85
2023/10/02 11:39:50;;;;;;;47.38;27.58;;;;;;;;;;5028079;28;20799;-82
2023/10/02 11:42:19;;;;;;;51.58;27.65;;;;;;;;;;5025411;28;20634;-85
2023/10/02 11:44:46;;;;;;;44.70;24.92;;;;;;;;;;5004152;28;20237;-81
2023/10/02 11:47:14;;;;;;;42.10;24.98;;;;;;;;;;5019608;28;20662;-82
2023/10/02 11:49:42;;;;;;;49.97;26.77;;;;;;;;;;5020590;28;20619;-80
2023/10/02 11:52:10;;;;;;;43.28;22.92;;;;;;;;;;5026662;28;20465;-85
2023/10/02 11:54:39;;;;;;;39.85;22.42;;;;;;;;;;5038720;28;21947;-83
2023/10/02 11:57:08;;;;;;;40.50;23.38;;;;;;;;;;5039135;28;20206;-84
2023/10/02 11:59:41;;;;;;;39.40;21.83;;;;;;;;;;5024761;28;20223;-82
2023/10/02 12:02:12;;;;;;;41.00;22.52;;;;;;;;;;5019247;28;20210;-84
2023/10/02 12:04:39;;;;;;;37.30;20.88;;;;;;;;;;5021676;28;20234;-83
2023/10/02 12:07:07;;;;;;;37.53;21.63;;;;;;;;;;5021130;28;20253;-87
2023/10/02 12:09:34;;;;;;;37.30;21.55;;;;;;;;;;5020615;28;20274;-86
2023/10/02 12:12:02;;;;;;;33.55;20.00;;;;;;;;;;5007532;28;20207;-86
2023/10/02 12:14:35;;;;;;;34.50;20.33;;;;;;;;;;5010089;28;20270;-86
2023/10/02 12:17:02;;;;;;;33.75;19.42;;;;;;;;;;5024564;28;20202;-82
2023/10/02 12:19:32;;;;;;;34.40;19.35;;;;;;;;;;5028441;28;20289;-82
2023/10/02 12:22:00;;;;;;;35.50;20.40;;;;;;;;;;5027293;28;20215;-85
2023/10/02 12:24:36;;;;;;;33.97;20.38;;;;;;;;;;5023801;28;20218;-78
2023/10/02 12:27:10;;;;;;;35.55;21.25;;;;;;;;;;5021988;28;20700;-83
2023/10/02 12:29:38;;;;;;;38.15;22.30;;;;;;;;;;5004299;28;20211;-84
2023/10/02 12:32:09;;;;;;;32.70;20.70;;;;;;;;;;5017113;28;20723;-80
2023/10/02 12:34:38;;;;;;;36.33;21.05;;;;;;;;;;5020742;28;20248;-81
2023/10/02 12:37:05;;;;;;;39.55;22.40;;;;;;;;;;5021763;28;20583;-82
2023/10/02 12:39:33;;;;;;;34.63;20.65;;;;;;;;;;5036086;28;20296;-78
2023/10/02 12:42:00;;;;;;;32.95;20.38;;;;;;;;;;5031225;28;20199;-83
2023/10/02 12:44:30;;;;;;;35.42;20.58;;;;;;;;;;5008059;28;20203;-85
2023/10/02 12:46:58;;;;;;;31.75;20.70;;;;;;;;;;5022240;28;20207;-83
2023/10/02 12:49:26;;;;;;;35.15;20.67;;;;;;;;;;5007975;28;20202;-82
2023/10/02 12:51:54;;;;;;;36.22;21.38;;;;;;;;;;5024862;28;20704;-84
2023/10/02 12:54:21;;;;;;;35.25;21.15;;;;;;;;;;5018152;28;20206;-85
2023/10/02 12:57:09;;;;;;;31.27;19.58;;;;;;;;;;5018116;28;20211;-89
2023/10/02 12:59:54;;;;;;;34.05;19.42;;;;;;;;;;5008612;28;20225;-82
2023/10/02 13:02:21;;;;;;;29.48;18.90;;;;;;;;;;5019275;28;20203;-80
2023/10/02 13:04:48;;;;;;;30.33;19.35;;;;;;;;;;5028735;28;20223;-83
2023/10/02 13:07:15;;;;;;;30.75;19.25;;;;;;;;;;5043137;28;20203;-85
2023/10/02 13:09:45;;;;;;;33.40;20.05;;;;;;;;;;5039796;28;20210;-82
2023/10/02 13:12:25;;;;;;;30.58;18.38;;;;;;;;;;5025399;28;20226;-84
2023/10/02 13:14:54;;;;;;;33.38;19.50;;;;;;;;;;5026655;28;20226;-86
2023/10/02 13:17:21;;;;;;;33.35;20.10;;;;;;;;;;5012151;28;20200;-83
2023/10/02 13:19:49;;;;;;;32.40;19.83;;;;;;;;;;5013495;28;20701;-82
2023/10/02 13:22:17;;;;;;;32.38;20.23;;;;;;;;;;5031888;28;20223;-84
2023/10/02 13:24:44;;;;;;;36.58;20.63;;;;;;;;;;5013972;28;20244;-85
2023/10/02 13:27:31;;;;;;;40.42;23.15;;;;;;;;;;5036320;28;20199;-85
2023/10/02 13:29:59;;;;;;;34.35;21.27;;;;;;;;;;5024250;28;20207;-84
2023/10/02 13:32:29;;;;;;;33.90;20.92;;;;;;;;;;5027462;28;20225;-86
2023/10/02 13:34:58;;;;;;;33.67;20.45;;;;;;;;;;5019080;28;20259;-85
2023/10/02 13:37:28;;;;;;;32.08;20.23;;;;;;;;;;5030780;28;20199;-85
2023/10/02 13:39:55;;;;;;;34.60;20.52;;;;;;;;;;5025416;28;20230;-82
2023/10/02 13:42:23;;;;;;;33.83;20.58;;;;;;;;;;5007439;28;20254;-84
2023/10/02 13:44:50;;;;;;;33.08;20.00;;;;;;;;;;5019407;28;20222;-85
2023/10/02 13:47:22;;;;;;;34.85;19.75;;;;;;;;;;5020176;28;20679;-82
2023/10/02 13:50:03;;;;;;;35.13;22.55;;;;;;;;;;5014131;28;20206;-84
2023/10/02 13:52:30;;;;;;;36.40;22.10;;;;;;;;;;5020558;28;20209;-83
2023/10/02 13:54:57;;;;;;;38.08;21.52;;;;;;;;;;5007315;28;20222;-87
2023/10/02 13:57:27;;;;;;;33.78;21.77;;;;;;;;;;5026184;28;20481;-80
2023/10/02 13:59:54;;;;;;;36.53;20.83;;;;;;;;;;5005693;28;20211;-83
2023/10/02 14:02:21;;;;;;;34.90;21.38;;;;;;;;;;5023351;28;20206;-84
2023/10/02 14:04:49;;;;;;;37.20;21.98;;;;;;;;;;5023570;28;20276;-86
2023/10/02 14:07:25;;;;;;;36.17;22.15;;;;;;;;;;5030018;28;20252;-82
2023/10/02 14:10:10;;;;;;;38.38;23.00;;;;;;;;;;5034253;28;21197;-84
2023/10/02 14:12:38;;;;;;;36.05;21.27;;;;;;;;;;5037676;28;20257;-86
2023/10/02 14:15:09;;;;;;;37.78;21.05;;;;;;;;;;5009079;28;20223;-81
2023/10/02 14:17:36;;;;;;;37.15;22.90;;;;;;;;;;5031952;28;20286;-80
2023/10/02 14:20:16;;;;;;;33.97;21.33;;;;;;;;;;5032521;28;20700;-83
2023/10/02 14:22:48;;;;;;;34.15;21.33;;;;;;;;;;5029788;28;20225;-81
2023/10/02 14:25:23;;;;;;;32.85;20.83;;;;;;;;;;5030595;28;20219;-86
2023/10/02 14:27:52;;;;;;;37.58;21.02;;;;;;;;;;5006392;28;20206;-83
2023/10/02 14:30:19;;;;;;;35.15;21.75;;;;;;;;;;5028939;28;20250;-84
2023/10/02 14:32:47;;;;;;;33.63;21.38;;;;;;;;;;5014534;28;20275;-86
2023/10/02 14:35:16;;;;;;;32.17;20.52;;;;;;;;;;5041525;28;20222;-86
2023/10/02 14:37:44;;;;;;;38.63;21.25;;;;;;;;;;5008849;28;20222;-86
2023/10/02 14:40:12;;;;;;;34.78;20.70;;;;;;;;;;5033095;28;20723;-88
2023/10/02 14:42:40;;;;;;;37.63;20.95;;;;;;;;;;5032517;28;20239;-87
2023/10/02 14:45:09;;;;;;;35.53;21.13;;;;;;;;;;5035517;28;20219;-87
2023/10/02 14:47:36;;;;;;;32.78;20.63;;;;;;;;;;5033073;28;21345;-86
2023/10/02 14:50:04;;;;;;;35.95;21.33;;;;;;;;;;5033373;28;20203;-87
2023/10/02 14:52:31;;;;;;;34.10;20.98;;;;;;;;;;5041108;28;20289;-86
2023/10/02 14:54:59;;;;;;;36.17;20.80;;;;;;;;;;5015740;28;20222;-86
2023/10/02 14:57:26;;;;;;;32.17;20.60;;;;;;;;;;5037160;28;20322;-86
2023/10/02 14:59:54;;;;;;;32.83;20.38;;;;;;;;;;5044683;28;20210;-86
2023/10/02 15:02:22;;;;;;;34.83;20.52;;;;;;;;;;5039371;28;20207;-86
2023/10/02 15:04:49;;;;;;;33.22;19.38;;;;;;;;;;5027684;28;20767;-87
2023/10/02 15:07:17;;;;;;;32.20;19.98;;;;;;;;;;5021222;28;20207;-87
2023/10/02 15:09:45;;;;;;;31.77;20.17;;;;;;;;;;5026779;28;20704;-85
2023/10/02 15:12:14;;;;;;;36.17;21.58;;;;;;;;;;5021968;28;20303;-87
2023/10/02 15:14:41;;;;;;;35.03;20.67;;;;;;;;;;5022762;28;20320;-87
2023/10/02 15:17:08;;;;;;;35.85;20.55;;;;;;;;;;5023976;28;20199;-88
2023/10/02 15:19:36;;;;;;;35.17;20.27;;;;;;;;;;5025306;28;20207;-87
2023/10/02 15:22:03;;;;;;;38.17;21.02;;;;;;;;;;5036134;28;20223;-86
2023/10/02 15:24:35;;;;;;;32.90;19.58;;;;;;;;;;5036964;28;20199;-87
2023/10/02 15:27:02;;;;;;;34.03;19.83;;;;;;;;;;5039329;28;20209;-85
2023/10/02 15:29:29;;;;;;;33.78;20.27;;;;;;;;;;5029376;28;20214;-84
2023/10/02 15:31:57;;;;;;;33.25;19.55;;;;;;;;;;5026838;28;20266;-85
2023/10/02 15:34:24;;;;;;;34.50;21.23;;;;;;;;;;5026792;28;20214;-88
2023/10/02 15:36:52;;;;;;;31.38;19.85;;;;;;;;;;5018653;28;20207;-88
2023/10/02 15:39:19;;;;;;;34.33;20.98;;;;;;;;;;5020116;28;20209;-86
2023/10/02 15:41:47;;;;;;;36.35;21.25;;;;;;;;;;5008475;28;20225;-87
2023/10/02 15:44:17;;;;;;;35.10;21.10;;;;;;;;;;5022624;28;20203;-86